createdAt,value
2019-05-23T00:02:14.883Z,66.72
2019-05-23T00:04:43.664Z,67.00
2019-05-23T00:07:11.808Z,67.09
2019-05-23T00:09:40.102Z,67.09
2019-05-23T00:12:09.764Z,67.05
2019-05-23T00:14:41.505Z,67.08
2019-05-23T00:17:12.500Z,67.42
2019-05-23T00:19:40.712Z,67.44
2019-05-23T00:22:09.608Z,67.67
2019-05-23T00:24:38.718Z,67.88
2019-05-23T00:27:06.988Z,68.16
2019-05-23T00:29:35.111Z,68.38
2019-05-23T00:32:03.235Z,68.33
2019-05-23T00:34:32.324Z,68.27
2019-05-23T00:37:00.448Z,68.32
2019-05-23T00:39:28.855Z,68.49
2019-05-23T00:41:56.999Z,68.55
2019-05-23T00:44:25.132Z,68.72
2019-05-23T00:46:53.758Z,68.85
2019-05-23T00:49:22.119Z,68.77
2019-05-23T00:51:50.266Z,68.91
2019-05-23T00:54:18.394Z,69.11
2019-05-23T00:56:46.517Z,69.18
2019-05-23T00:59:26.402Z,69.35
2019-05-23T01:01:44.846Z,69.49
2019-05-23T01:04:13.403Z,69.57
2019-05-23T01:06:42.272Z,69.55
2019-05-23T01:09:10.427Z,69.65
2019-05-23T01:11:38.680Z,69.67
2019-05-23T01:14:06.868Z,69.62
2019-05-23T01:16:35.061Z,69.50
2019-05-23T01:19:03.220Z,69.54
2019-05-23T01:21:31.357Z,69.67
2019-05-23T01:23:59.496Z,69.82
2019-05-23T01:26:28.443Z,69.82
2019-05-23T01:28:56.594Z,69.97
2019-05-23T01:31:25.009Z,70.12
2019-05-23T01:33:54.379Z,70.07
2019-05-23T01:36:22.826Z,70.10
2019-05-23T01:38:51.042Z,70.23
2019-05-23T01:41:19.652Z,70.30
2019-05-23T01:43:49.094Z,70.42
2019-05-23T01:46:17.452Z,70.52
2019-05-23T01:48:45.671Z,70.71
2019-05-23T01:51:14.215Z,70.88
2019-05-23T01:53:42.403Z,70.94
2019-05-23T01:56:10.568Z,70.86
2019-05-23T01:58:38.719Z,70.99
2019-05-23T02:01:07.044Z,71.13
2019-05-23T02:03:35.167Z,71.00
2019-05-23T02:06:05.973Z,71.01
2019-05-23T02:08:34.027Z,71.12
2019-05-23T02:11:02.142Z,71.15
2019-05-23T02:13:30.783Z,71.19
2019-05-23T02:15:59.018Z,71.25
2019-05-23T02:18:27.144Z,71.20
2019-05-23T02:20:55.806Z,71.46
2019-05-23T02:23:24.380Z,71.49
2019-05-23T02:25:52.487Z,71.54
2019-05-23T02:28:21.745Z,71.48
2019-05-23T02:30:50.629Z,71.53
2019-05-23T02:33:18.738Z,71.56
2019-05-23T02:35:46.887Z,71.65
2019-05-23T02:38:15.092Z,71.73
2019-05-23T02:40:43.409Z,71.67
2019-05-23T02:43:11.850Z,71.57
2019-05-23T02:45:42.811Z,71.60
2019-05-23T02:48:12.362Z,71.77
2019-05-23T02:50:45.788Z,71.79
2019-05-23T02:53:16.852Z,71.79
2019-05-23T02:55:46.160Z,71.74
2019-05-23T02:58:21.277Z,71.72
2019-05-23T03:00:59.749Z,71.92
2019-05-23T03:03:29.350Z,71.86
2019-05-23T03:05:57.734Z,71.90
2019-05-23T03:08:26.248Z,71.90
2019-05-23T03:11:35.769Z,72.12
2019-05-23T03:14:04.743Z,72.10
2019-05-23T03:16:34.919Z,72.26
2019-05-23T03:19:06.764Z,72.37
2019-05-23T03:21:34.904Z,72.31
2019-05-23T03:24:06.537Z,72.30
2019-05-23T03:26:59.815Z,72.21
2019-05-23T03:29:28.776Z,72.37
2019-05-23T03:31:58.476Z,72.30
2019-05-23T03:34:26.749Z,72.28
2019-05-23T03:36:54.806Z,72.28
2019-05-23T03:39:23.479Z,72.27
2019-05-23T03:41:51.613Z,72.25
2019-05-23T03:44:19.823Z,72.24
2019-05-23T03:46:48.022Z,72.20
2019-05-23T03:49:16.989Z,72.13
2019-05-23T03:51:45.596Z,72.10
2019-05-23T03:54:13.711Z,72.03
2019-05-23T03:56:42.360Z,72.05
2019-05-23T03:59:10.517Z,72.05
2019-05-23T04:01:47.870Z,71.99
2019-05-23T04:04:09.108Z,71.87
2019-05-23T04:06:37.327Z,71.82
2019-05-23T04:09:06.337Z,71.83
2019-05-23T04:11:34.966Z,71.76
2019-05-23T04:14:03.680Z,71.75
2019-05-23T04:16:31.877Z,71.70
2019-05-23T04:19:00.289Z,71.66
2019-05-23T04:21:28.851Z,71.67
2019-05-23T04:23:56.987Z,71.57
2019-05-23T04:26:25.234Z,71.56
2019-05-23T04:28:53.331Z,71.54
2019-05-23T04:31:21.479Z,71.50
2019-05-23T04:33:49.750Z,71.40
2019-05-23T04:36:18.110Z,71.31
2019-05-23T04:38:46.763Z,71.21
2019-05-23T04:41:15.004Z,71.18
2019-05-23T04:43:43.150Z,71.09
2019-05-23T04:46:11.858Z,71.11
2019-05-23T04:48:40.022Z,71.07
2019-05-23T04:51:08.214Z,70.96
2019-05-23T04:53:36.309Z,70.85
2019-05-23T04:56:04.429Z,70.76
2019-05-23T04:58:32.680Z,70.58
2019-05-23T05:01:00.817Z,70.51
2019-05-23T05:03:29.414Z,70.23
2019-05-23T05:05:57.715Z,70.03
2019-05-23T05:08:25.815Z,69.89
2019-05-23T05:10:54.118Z,69.73
2019-05-23T05:13:22.879Z,69.56
2019-05-23T05:15:51.326Z,69.57
2019-05-23T05:18:20.008Z,69.50
2019-05-23T05:20:48.769Z,69.25
2019-05-23T05:23:16.960Z,69.12
2019-05-23T05:25:45.074Z,68.66
2019-05-23T05:28:13.231Z,68.63
2019-05-23T05:30:41.484Z,68.40
2019-05-23T05:33:09.731Z,68.33
2019-05-23T05:35:38.303Z,68.12
2019-05-23T05:38:06.448Z,68.11
2019-05-23T05:40:34.548Z,67.99
2019-05-23T05:43:02.695Z,67.88
2019-05-23T05:45:30.895Z,67.29
2019-05-23T05:47:59.154Z,67.41
2019-05-23T05:50:27.430Z,67.11
2019-05-23T05:52:55.649Z,67.14
2019-05-23T05:55:23.804Z,67.04
2019-05-23T05:57:52.026Z,66.86
2019-05-23T06:00:20.848Z,66.77
2019-05-23T06:03:03.793Z,66.75
2019-05-23T06:05:18.855Z,66.59
2019-05-23T06:07:46.973Z,66.53
2019-05-23T06:10:15.418Z,66.48
2019-05-23T06:12:43.562Z,66.34
2019-05-23T06:15:11.702Z,66.05
2019-05-23T06:17:39.861Z,65.50
2019-05-23T06:20:09.090Z,65.39
2019-05-23T06:22:37.319Z,65.17
2019-05-23T06:25:08.551Z,64.91
2019-05-23T06:27:37.796Z,64.82
2019-05-23T06:30:06.627Z,64.70
2019-05-23T06:32:34.714Z,64.29
2019-05-23T06:35:03.003Z,63.90
2019-05-23T06:37:34.192Z,63.68
2019-05-23T06:40:01.406Z,63.20
2019-05-23T06:42:32.023Z,62.57
2019-05-23T06:44:59.991Z,62.63
2019-05-23T06:47:31.253Z,62.37
2019-05-23T06:50:02.376Z,62.34
2019-05-23T06:52:36.929Z,61.58
2019-05-23T06:55:05.295Z,61.24
2019-05-23T06:57:35.338Z,61.04
2019-05-23T07:00:04.039Z,60.73
2019-05-23T07:02:37.090Z,60.19
2019-05-23T07:05:07.181Z,60.26
2019-05-23T07:07:39.044Z,60.31
2019-05-23T07:10:11.800Z,60.20
2019-05-23T07:12:47.366Z,59.47
2019-05-23T07:15:15.587Z,59.14
2019-05-23T07:17:45.421Z,58.80
2019-05-23T07:20:15.513Z,56.59
2019-05-23T07:22:43.657Z,56.50
2019-05-23T07:25:20.029Z,56.29
2019-05-23T07:27:50.173Z,55.99
2019-05-23T07:30:22.679Z,55.00
2019-05-23T07:32:50.944Z,54.39
2019-05-23T07:35:22.437Z,54.79
2019-05-23T07:37:56.548Z,54.58
2019-05-23T07:40:27.560Z,54.31
2019-05-23T07:42:58.497Z,54.13
2019-05-23T07:45:29.895Z,53.73
2019-05-23T07:48:01.067Z,53.38
2019-05-23T07:50:34.265Z,52.65
2019-05-23T07:52:58.876Z,52.34
2019-05-23T07:55:30.243Z,50.70
2019-05-23T07:58:03.576Z,52.05
2019-05-23T08:00:31.773Z,51.41
2019-05-23T08:03:01.751Z,50.90
2019-05-23T08:05:29.873Z,50.37
2019-05-23T08:07:58.689Z,50.25
2019-05-23T08:10:33.893Z,49.62
2019-05-23T08:12:56.734Z,49.55
2019-05-23T08:15:24.864Z,49.18
2019-05-23T08:17:53.005Z,49.60
2019-05-23T08:20:21.330Z,49.81
2019-05-23T08:22:49.648Z,48.41
2019-05-23T08:25:17.765Z,47.79
2019-05-23T08:27:46.503Z,46.49
2019-05-23T08:30:16.338Z,44.32
2019-05-23T08:32:44.450Z,44.58
2019-05-23T08:35:17.573Z,43.98
2019-05-23T08:37:42.618Z,43.51
2019-05-23T08:40:12.640Z,40.97
2019-05-23T08:42:40.818Z,40.30
2019-05-23T08:45:10.090Z,39.99
2019-05-23T08:47:38.216Z,39.62
2019-05-23T08:50:07.233Z,38.79
2019-05-23T08:52:35.479Z,37.72
2019-05-23T08:55:09.270Z,36.82
2019-05-23T08:57:37.595Z,37.24
2019-05-23T09:00:05.855Z,36.06
2019-05-23T09:02:33.982Z,34.78
2019-05-23T09:05:06.289Z,35.07
2019-05-23T09:07:33.460Z,35.13
2019-05-23T09:10:01.587Z,35.38
2019-05-23T09:12:29.721Z,34.91
2019-05-23T09:14:57.854Z,35.26
2019-05-23T09:17:26.043Z,35.19
2019-05-23T09:19:54.236Z,35.20
2019-05-23T09:22:22.420Z,34.36
2019-05-23T09:24:50.551Z,34.02
2019-05-23T09:27:18.927Z,33.22
2019-05-23T09:29:47.151Z,33.14
2019-05-23T09:32:15.832Z,32.70
2019-05-23T09:34:44.098Z,32.40
2019-05-23T09:37:12.222Z,32.02
2019-05-23T09:39:40.354Z,31.54
2019-05-23T09:42:11.902Z,31.73
2019-05-23T09:44:38.506Z,31.69
2019-05-23T09:47:06.711Z,31.36
2019-05-23T09:49:34.871Z,31.74
2019-05-23T09:52:03.133Z,31.58
2019-05-23T09:54:31.560Z,31.41
2019-05-23T09:56:59.736Z,31.12
2019-05-23T09:59:30.607Z,30.79
2019-05-23T10:01:58.748Z,29.92
2019-05-23T10:04:26.879Z,30.12
2019-05-23T10:06:55.000Z,30.02
2019-05-23T10:09:23.162Z,30.45
2019-05-23T10:11:51.266Z,29.29
2019-05-23T10:14:19.519Z,29.34
2019-05-23T10:16:47.678Z,28.40
2019-05-23T10:19:15.833Z,28.04
2019-05-23T10:21:44.096Z,28.64
2019-05-23T10:24:12.226Z,28.77
2019-05-23T10:26:40.363Z,28.75
2019-05-23T10:29:08.512Z,27.93
2019-05-23T10:31:36.687Z,27.73
2019-05-23T10:34:05.138Z,27.42
2019-05-23T10:36:33.268Z,28.00
2019-05-23T10:39:03.378Z,27.78
2019-05-23T10:41:31.605Z,27.82
2019-05-23T10:43:59.778Z,27.24
2019-05-23T10:46:27.917Z,28.07
2019-05-23T10:48:56.228Z,28.05
2019-05-23T10:51:24.448Z,27.60
2019-05-23T10:53:52.580Z,27.19
2019-05-23T10:56:21.153Z,27.10
2019-05-23T10:58:49.338Z,26.76
2019-05-23T11:01:17.548Z,26.79
2019-05-23T11:03:45.791Z,26.07
2019-05-23T11:06:16.699Z,25.72
2019-05-23T11:08:44.582Z,25.15
2019-05-23T11:11:14.653Z,25.51
2019-05-23T11:13:42.862Z,25.27
2019-05-23T11:16:11.024Z,24.50
2019-05-23T11:18:39.328Z,24.39
2019-05-23T11:21:07.634Z,24.36
2019-05-23T11:23:35.763Z,24.52
2019-05-23T11:26:04.884Z,24.64
2019-05-23T11:28:33.166Z,24.52
2019-05-23T11:31:03.974Z,24.33
2019-05-23T11:33:32.270Z,23.90
2019-05-23T11:36:00.413Z,23.91
2019-05-23T11:38:28.688Z,24.05
2019-05-23T11:40:56.852Z,23.89
2019-05-23T11:43:25.541Z,23.88
2019-05-23T11:45:53.789Z,23.35
2019-05-23T11:48:21.994Z,24.04
2019-05-23T11:50:50.113Z,24.16
2019-05-23T11:53:18.368Z,24.00
2019-05-23T11:55:46.695Z,23.66
2019-05-23T11:58:14.884Z,24.37
2019-05-23T12:01:20.469Z,24.54
2019-05-23T12:03:42.438Z,24.73
2019-05-23T12:06:10.553Z,24.78
2019-05-23T12:08:38.809Z,24.79
2019-05-23T12:11:06.991Z,24.72
2019-05-23T12:13:35.270Z,24.90
2019-05-23T12:16:03.643Z,24.98
2019-05-23T12:18:31.764Z,24.51
2019-05-23T12:21:00.010Z,24.33
2019-05-23T12:23:28.676Z,24.21
2019-05-23T12:25:57.426Z,23.92
2019-05-23T12:28:25.580Z,23.93
2019-05-23T12:30:53.707Z,23.60
2019-05-23T12:33:21.970Z,23.86
2019-05-23T12:35:50.091Z,23.98
2019-05-23T12:38:18.207Z,23.69
2019-05-23T12:40:46.392Z,22.97
2019-05-23T12:43:14.508Z,22.52
2019-05-23T12:45:42.649Z,23.02
2019-05-23T12:48:10.945Z,23.44
2019-05-23T12:50:39.051Z,23.99
2019-05-23T12:53:07.273Z,24.08
2019-05-23T12:55:35.543Z,24.34
2019-05-23T12:58:03.790Z,24.39
2019-05-23T13:00:32.014Z,24.35
2019-05-23T13:03:00.162Z,24.73
2019-05-23T13:05:28.381Z,25.40
2019-05-23T13:07:56.728Z,25.85
2019-05-23T13:10:25.481Z,25.85
2019-05-23T13:12:54.189Z,25.89
2019-05-23T13:15:22.378Z,26.16
2019-05-23T13:17:50.504Z,26.19
2019-05-23T13:20:19.172Z,26.79
2019-05-23T13:22:47.401Z,26.81
2019-05-23T13:25:15.676Z,27.14
2019-05-23T13:27:43.885Z,26.59
2019-05-23T13:30:12.656Z,26.94
2019-05-23T13:32:40.794Z,27.39
2019-05-23T13:35:09.502Z,27.24
2019-05-23T13:37:52.369Z,27.46
2019-05-23T13:40:07.806Z,27.87
2019-05-23T13:42:36.204Z,28.83
2019-05-23T13:45:04.966Z,28.92
2019-05-23T13:47:33.204Z,29.19
2019-05-23T13:50:03.921Z,29.60
2019-05-23T13:52:32.122Z,30.28
2019-05-23T13:55:00.348Z,30.40
2019-05-23T13:57:28.616Z,30.19
2019-05-23T13:59:56.750Z,30.05
2019-05-23T14:02:24.971Z,30.72
2019-05-23T14:04:53.308Z,30.92
2019-05-23T14:07:21.498Z,30.92
2019-05-23T14:09:49.694Z,30.67
2019-05-23T14:12:21.574Z,31.16
2019-05-23T14:14:49.793Z,31.82
2019-05-23T14:17:17.969Z,32.03
2019-05-23T14:19:46.121Z,31.94
2019-05-23T14:22:14.483Z,31.81
2019-05-23T14:24:43.068Z,32.20
2019-05-23T14:27:11.608Z,31.94
2019-05-23T14:29:39.794Z,32.28
2019-05-23T14:32:07.985Z,32.47
2019-05-23T14:34:36.137Z,32.54
2019-05-23T14:37:04.319Z,32.71
2019-05-23T14:39:32.545Z,32.78
2019-05-23T14:42:00.817Z,32.38
2019-05-23T14:44:29.083Z,32.33
2019-05-23T14:46:57.778Z,32.39
2019-05-23T14:49:25.907Z,32.28
2019-05-23T14:51:54.564Z,32.36
2019-05-23T14:54:22.732Z,32.53
2019-05-23T14:56:50.900Z,32.20
2019-05-23T14:59:19.077Z,32.33
2019-05-23T15:01:47.423Z,32.21
2019-05-23T15:04:15.633Z,32.48
2019-05-23T15:06:43.796Z,32.37
2019-05-23T15:09:11.959Z,32.48
2019-05-23T15:11:40.128Z,32.41
2019-05-23T15:14:08.441Z,32.00
2019-05-23T15:16:36.555Z,32.10
2019-05-23T15:19:04.896Z,31.88
2019-05-23T15:21:33.931Z,31.91
2019-05-23T15:24:02.133Z,32.08
2019-05-23T15:26:30.312Z,31.99
2019-05-23T15:28:58.502Z,31.85
2019-05-23T15:31:26.650Z,31.56
2019-05-23T15:33:54.795Z,31.49
2019-05-23T15:36:28.835Z,30.96
2019-05-23T15:39:09.145Z,30.85
2019-05-23T15:41:28.291Z,30.41
2019-05-23T15:43:56.404Z,29.66
2019-05-23T15:46:24.625Z,29.05
2019-05-23T15:48:52.780Z,28.31
2019-05-23T15:51:22.239Z,28.08
2019-05-23T15:53:53.290Z,28.04
2019-05-23T15:56:28.024Z,28.00
2019-05-23T15:58:53.171Z,28.15
2019-05-23T16:01:23.767Z,27.92
2019-05-23T16:03:52.049Z,27.21
2019-05-23T16:06:20.199Z,27.20
2019-05-23T16:08:48.853Z,27.31
2019-05-23T16:11:17.731Z,26.80
2019-05-23T16:13:46.442Z,26.65
2019-05-23T16:16:14.623Z,26.49
2019-05-23T16:18:44.017Z,26.45
2019-05-23T16:21:36.831Z,25.84
2019-05-23T16:23:48.829Z,26.16
2019-05-23T16:26:17.335Z,25.91
2019-05-23T16:28:45.487Z,25.78
2019-05-23T16:31:13.742Z,26.07
2019-05-23T16:33:41.863Z,26.29
2019-05-23T16:36:10.088Z,26.61
2019-05-23T16:38:38.244Z,26.48
2019-05-23T16:41:06.376Z,26.24
2019-05-23T16:43:34.558Z,25.98
2019-05-23T16:46:03.089Z,25.94
2019-05-23T16:48:31.260Z,26.15
2019-05-23T16:50:59.434Z,26.31
2019-05-23T16:53:28.008Z,26.56
2019-05-23T16:55:56.314Z,26.90
2019-05-23T16:58:24.440Z,27.60
2019-05-23T17:00:52.658Z,27.60
2019-05-23T17:03:21.276Z,27.46
2019-05-23T17:05:49.632Z,27.63
2019-05-23T17:08:18.525Z,27.76
2019-05-23T17:10:46.745Z,28.20
2019-05-23T17:13:14.883Z,28.62
2019-05-23T17:15:43.408Z,28.80
2019-05-23T17:18:11.789Z,28.93
2019-05-23T17:20:39.921Z,28.90
2019-05-23T17:23:08.082Z,29.15
2019-05-23T17:25:36.272Z,29.38
2019-05-23T17:28:04.508Z,29.73
2019-05-23T17:30:32.797Z,29.94
2019-05-23T17:33:00.883Z,30.37
2019-05-23T17:35:29.320Z,30.48
2019-05-23T17:37:57.598Z,30.67
2019-05-23T17:40:25.937Z,30.75
2019-05-23T17:42:54.090Z,31.02
2019-05-23T17:45:22.394Z,31.41
2019-05-23T17:47:50.571Z,31.78
2019-05-23T17:50:18.770Z,32.05
2019-05-23T17:52:46.893Z,31.97
2019-05-23T17:55:15.099Z,32.22
2019-05-23T17:57:43.239Z,32.08
2019-05-23T18:00:12.156Z,32.38
2019-05-23T18:02:40.398Z,33.04
2019-05-23T18:05:08.551Z,33.71
2019-05-23T18:07:36.809Z,33.79
2019-05-23T18:10:05.193Z,34.39
2019-05-23T18:12:33.302Z,34.70
2019-05-23T18:15:04.176Z,35.30
2019-05-23T18:17:32.293Z,35.43
2019-05-23T18:20:00.615Z,35.81
2019-05-23T18:22:29.010Z,36.28
2019-05-23T18:24:59.735Z,36.88
2019-05-23T18:27:27.731Z,37.22
2019-05-23T18:29:55.892Z,37.54
2019-05-23T18:32:24.751Z,38.04
2019-05-23T18:34:53.263Z,38.66
2019-05-23T18:37:21.378Z,39.01
2019-05-23T18:39:49.582Z,39.69
2019-05-23T18:42:17.806Z,39.96
2019-05-23T18:44:45.937Z,40.44
2019-05-23T18:47:14.101Z,41.16
2019-05-23T18:49:42.290Z,41.52
2019-05-23T18:52:10.554Z,41.97
2019-05-23T18:54:38.691Z,42.21
2019-05-23T18:57:06.828Z,42.79
2019-05-23T18:59:34.984Z,43.32
2019-05-23T19:02:03.339Z,43.48
2019-05-23T19:04:31.540Z,43.61
2019-05-23T19:06:59.703Z,44.11
2019-05-23T19:09:27.914Z,44.61
2019-05-23T19:11:57.103Z,45.53
2019-05-23T19:14:25.245Z,46.12
2019-05-23T19:16:53.589Z,46.48
2019-05-23T19:19:21.756Z,47.02
2019-05-23T19:21:49.998Z,47.65
2019-05-23T19:24:18.136Z,48.09
2019-05-23T19:26:46.386Z,48.66
2019-05-23T19:29:15.165Z,48.95
2019-05-23T19:31:43.483Z,49.68
2019-05-23T19:34:11.614Z,49.70
2019-05-23T19:36:39.750Z,50.38
2019-05-23T19:39:09.189Z,50.65
2019-05-23T19:41:38.365Z,50.95
2019-05-23T19:44:06.694Z,51.30
2019-05-23T19:46:35.097Z,51.41
2019-05-23T19:49:03.613Z,51.64
2019-05-23T19:51:31.740Z,52.04
2019-05-23T19:53:59.966Z,52.50
2019-05-23T19:56:28.252Z,52.77
2019-05-23T19:58:56.595Z,52.84
2019-05-23T20:01:24.744Z,53.12
2019-05-23T20:03:52.933Z,53.40
2019-05-23T20:06:21.056Z,53.69
2019-05-23T20:08:49.313Z,53.81
2019-05-23T20:11:17.451Z,54.08
2019-05-23T20:13:45.574Z,54.25
2019-05-23T20:16:13.847Z,54.53
2019-05-23T20:18:42.020Z,54.45
2019-05-23T20:21:10.161Z,54.66
2019-05-23T20:23:39.596Z,54.96
2019-05-23T20:26:08.565Z,54.99
2019-05-23T20:28:39.810Z,55.31
2019-05-23T20:31:24.324Z,55.48
2019-05-23T20:33:55.369Z,55.78
2019-05-23T20:36:23.530Z,56.22
2019-05-23T20:38:54.602Z,56.79
2019-05-23T20:41:25.785Z,57.09
2019-05-23T20:43:54.035Z,57.47
2019-05-23T20:46:22.381Z,57.86
2019-05-23T20:48:50.511Z,58.05
2019-05-23T20:51:21.424Z,58.53
2019-05-23T20:53:49.577Z,58.87
2019-05-23T20:56:21.924Z,59.15
2019-05-23T20:58:50.061Z,59.45
2019-05-23T21:01:18.202Z,59.84
2019-05-23T21:03:46.488Z,59.87
2019-05-23T21:06:18.514Z,60.22
2019-05-23T21:08:46.635Z,60.85
2019-05-23T21:11:14.854Z,61.24
2019-05-23T21:13:43.040Z,61.58
2019-05-23T21:16:11.165Z,61.67
2019-05-23T21:18:39.376Z,61.92
2019-05-23T21:21:07.583Z,62.05
2019-05-23T21:23:35.892Z,62.18
2019-05-23T21:26:04.111Z,62.41
2019-05-23T21:28:32.275Z,62.49
2019-05-23T21:31:00.410Z,62.54
2019-05-23T21:33:28.551Z,62.79
2019-05-23T21:35:56.651Z,62.88
2019-05-23T21:38:24.814Z,63.30
2019-05-23T21:40:52.935Z,63.67
2019-05-23T21:43:21.061Z,63.88
2019-05-23T21:45:49.214Z,64.12
2019-05-23T21:48:17.872Z,64.14
2019-05-23T21:50:46.009Z,64.31
2019-05-23T21:53:14.565Z,64.25
2019-05-23T21:55:43.427Z,64.61
2019-05-23T21:58:13.161Z,64.99
2019-05-23T22:01:07.698Z,65.26
2019-05-23T22:03:35.914Z,65.62
2019-05-23T22:06:05.581Z,65.87
2019-05-23T22:08:33.883Z,66.11
2019-05-23T22:11:02.392Z,66.31
2019-05-23T22:13:30.535Z,66.42
2019-05-23T22:15:58.676Z,66.87
2019-05-23T22:18:26.821Z,67.15
2019-05-23T22:20:55.447Z,67.13
2019-05-23T22:23:23.604Z,67.37
2019-05-23T22:25:51.799Z,67.40
2019-05-23T22:28:19.937Z,67.47
2019-05-23T22:30:48.461Z,67.68
2019-05-23T22:33:16.617Z,67.80
2019-05-23T22:35:44.752Z,68.09
2019-05-23T22:38:14.159Z,68.12
2019-05-23T22:40:42.313Z,68.31
2019-05-23T22:43:20.584Z,68.47
2019-05-23T22:45:40.290Z,68.44
2019-05-23T22:48:08.426Z,68.43
2019-05-23T22:50:36.593Z,68.35
2019-05-23T22:53:04.712Z,68.53
2019-05-23T22:55:32.848Z,68.67
2019-05-23T22:58:00.982Z,68.63
2019-05-23T23:00:29.180Z,68.90
2019-05-23T23:02:57.325Z,68.85
2019-05-23T23:05:25.500Z,68.89
2019-05-23T23:07:53.621Z,69.11
2019-05-23T23:10:21.784Z,69.23
2019-05-23T23:12:49.944Z,69.28
2019-05-23T23:15:18.488Z,69.53
2019-05-23T23:17:46.616Z,69.68
2019-05-23T23:20:14.765Z,69.73
2019-05-23T23:22:42.932Z,69.78
2019-05-23T23:25:11.754Z,69.50
2019-05-23T23:27:39.912Z,69.51
2019-05-23T23:30:08.195Z,69.64
2019-05-23T23:32:36.338Z,69.83
2019-05-23T23:35:04.495Z,69.89
2019-05-23T23:37:32.652Z,70.09
2019-05-23T23:40:04.093Z,70.21
2019-05-23T23:42:32.185Z,70.29
2019-05-23T23:45:00.383Z,70.31
2019-05-23T23:47:28.510Z,70.44
2019-05-23T23:49:56.609Z,70.47
2019-05-23T23:52:24.806Z,70.54
2019-05-23T23:54:53.038Z,70.51
2019-05-23T23:57:21.864Z,70.41
2019-05-23T23:59:50.037Z,70.76
